sensor_id;sensor_type;location;lat;lon;timestamp;P1;durP1;ratioP1;P2;durP2;ratioP2
16577;SDS011;8401;52.528;13.340;2023-02-23T00:01:26;19.20;;;9.77;;
16577;SDS011;8401;52.528;13.340;2023-02-23T00:03:54;20.43;;;10.27;;
16577;SDS011;8401;52.528;13.340;2023-02-23T00:06:21;17.63;;;9.03;;
16577;SDS011;8401;52.528;13.340;2023-02-23T00:08:48;17.67;;;8.73;;
16577;SDS011;8401;52.528;13.340;2023-02-23T00:11:16;19.17;;;9.17;;
16577;SDS011;8401;52.528;13.340;2023-02-23T00:13:43;18.07;;;8.87;;
16577;SDS011;8401;52.528;13.340;2023-02-23T00:16:14;19.67;;;8.67;;
16577;SDS011;8401;52.528;13.340;2023-02-23T00:18:50;18.57;;;10.07;;
16577;SDS011;8401;52.528;13.340;2023-02-23T00:21:19;22.30;;;10.03;;
16577;SDS011;8401;52.528;13.340;2023-02-23T00:23:56;20.33;;;10.70;;
16577;SDS011;8401;52.528;13.340;2023-02-23T00:26:24;22.93;;;9.73;;
16577;SDS011;8401;52.528;13.340;2023-02-23T00:28:55;18.83;;;9.57;;
16577;SDS011;8401;52.528;13.340;2023-02-23T00:31:24;20.37;;;9.90;;
16577;SDS011;8401;52.528;13.340;2023-02-23T00:33:52;21.10;;;10.33;;
16577;SDS011;8401;52.528;13.340;2023-02-23T00:36:23;21.63;;;10.60;;
16577;SDS011;8401;52.528;13.340;2023-02-23T00:38:53;21.53;;;9.07;;
16577;SDS011;8401;52.528;13.340;2023-02-23T00:41:20;21.30;;;9.53;;
16577;SDS011;8401;52.528;13.340;2023-02-23T00:43:55;25.43;;;10.30;;
16577;SDS011;8401;52.528;13.340;2023-02-23T00:46:23;17.93;;;8.97;;
16577;SDS011;8401;52.528;13.340;2023-02-23T00:48:54;29.80;;;11.07;;
16577;SDS011;8401;52.528;13.340;2023-02-23T00:51:21;22.93;;;11.37;;
16577;SDS011;8401;52.528;13.340;2023-02-23T00:53:48;24.70;;;10.93;;
16577;SDS011;8401;52.528;13.340;2023-02-23T00:56:19;22.73;;;10.03;;
16577;SDS011;8401;52.528;13.340;2023-02-23T00:58:45;21.63;;;11.17;;
16577;SDS011;8401;52.528;13.340;2023-02-23T01:01:12;21.67;;;10.83;;
16577;SDS011;8401;52.528;13.340;2023-02-23T01:03:38;19.73;;;10.27;;
16577;SDS011;8401;52.528;13.340;2023-02-23T01:06:07;20.00;;;10.27;;
16577;SDS011;8401;52.528;13.340;2023-02-23T01:08:35;24.13;;;10.77;;
16577;SDS011;8401;52.528;13.340;2023-02-23T01:11:10;20.10;;;10.03;;
16577;SDS011;8401;52.528;13.340;2023-02-23T01:13:39;21.87;;;10.90;;
16577;SDS011;8401;52.528;13.340;2023-02-23T01:16:06;22.00;;;9.87;;
16577;SDS011;8401;52.528;13.340;2023-02-23T01:18:37;20.70;;;10.20;;
16577;SDS011;8401;52.528;13.340;2023-02-23T01:21:04;19.83;;;9.63;;
16577;SDS011;8401;52.528;13.340;2023-02-23T01:23:38;22.97;;;10.57;;
16577;SDS011;8401;52.528;13.340;2023-02-23T01:26:03;27.10;;;12.43;;
16577;SDS011;8401;52.528;13.340;2023-02-23T01:28:29;23.07;;;10.47;;
16577;SDS011;8401;52.528;13.340;2023-02-23T01:30:54;21.40;;;11.50;;
16577;SDS011;8401;52.528;13.340;2023-02-23T01:33:20;25.07;;;9.77;;
16577;SDS011;8401;52.528;13.340;2023-02-23T01:35:55;21.00;;;11.27;;
16577;SDS011;8401;52.528;13.340;2023-02-23T01:38:22;22.77;;;11.17;;
16577;SDS011;8401;52.528;13.340;2023-02-23T01:40:47;17.03;;;10.17;;
16577;SDS011;8401;52.528;13.340;2023-02-23T01:45:41;22.30;;;11.73;;
16577;SDS011;8401;52.528;13.340;2023-02-23T01:48:09;25.67;;;10.97;;
16577;SDS011;8401;52.528;13.340;2023-02-23T01:50:44;20.53;;;10.33;;
16577;SDS011;8401;52.528;13.340;2023-02-23T01:53:17;26.33;;;11.40;;
16577;SDS011;8401;52.528;13.340;2023-02-23T01:55:46;20.57;;;10.17;;
16577;SDS011;8401;52.528;13.340;2023-02-23T01:58:14;20.27;;;10.50;;
16577;SDS011;8401;52.528;13.340;2023-02-23T02:00:45;22.53;;;11.80;;
16577;SDS011;8401;52.528;13.340;2023-02-23T02:03:25;20.73;;;10.53;;
16577;SDS011;8401;52.528;13.340;2023-02-23T02:06:06;22.90;;;11.80;;
16577;SDS011;8401;52.528;13.340;2023-02-23T02:08:34;23.30;;;11.37;;
16577;SDS011;8401;52.528;13.340;2023-02-23T02:11:08;25.03;;;10.60;;
16577;SDS011;8401;52.528;13.340;2023-02-23T02:13:50;23.53;;;11.93;;
16577;SDS011;8401;52.528;13.340;2023-02-23T02:18:53;25.23;;;10.30;;
16577;SDS011;8401;52.528;13.340;2023-02-23T02:24:12;25.23;;;12.77;;
16577;SDS011;8401;52.528;13.340;2023-02-23T02:35:50;25.30;;;11.43;;
16577;SDS011;8401;52.528;13.340;2023-02-23T02:38:48;22.53;;;10.90;;
16577;SDS011;8401;52.528;13.340;2023-02-23T02:41:22;23.83;;;11.60;;
16577;SDS011;8401;52.528;13.340;2023-02-23T02:44:01;25.10;;;11.50;;
16577;SDS011;8401;52.528;13.340;2023-02-23T02:46:44;24.80;;;12.07;;
16577;SDS011;8401;52.528;13.340;2023-02-23T02:51:50;23.13;;;11.33;;
16577;SDS011;8401;52.528;13.340;2023-02-23T02:54:38;24.07;;;12.00;;
16577;SDS011;8401;52.528;13.340;2023-02-23T02:57:07;22.43;;;11.93;;
16577;SDS011;8401;52.528;13.340;2023-02-23T02:59:45;26.57;;;11.33;;
16577;SDS011;8401;52.528;13.340;2023-02-23T03:02:35;25.20;;;10.73;;
16577;SDS011;8401;52.528;13.340;2023-02-23T03:05:22;22.30;;;11.40;;
16577;SDS011;8401;52.528;13.340;2023-02-23T03:11:11;22.87;;;11.17;;
16577;SDS011;8401;52.528;13.340;2023-02-23T03:20:05;25.27;;;12.33;;
16577;SDS011;8401;52.528;13.340;2023-02-23T03:22:57;26.23;;;10.63;;
16577;SDS011;8401;52.528;13.340;2023-02-23T03:26:03;29.23;;;11.07;;
16577;SDS011;8401;52.528;13.340;2023-02-23T03:29:08;23.20;;;12.03;;
16577;SDS011;8401;52.528;13.340;2023-02-23T03:32:04;24.97;;;11.73;;
16577;SDS011;8401;52.528;13.340;2023-02-23T03:35:03;22.37;;;11.00;;
16577;SDS011;8401;52.528;13.340;2023-02-23T03:38:00;24.80;;;12.03;;
16577;SDS011;8401;52.528;13.340;2023-02-23T03:40:49;24.47;;;11.90;;
16577;SDS011;8401;52.528;13.340;2023-02-23T03:43:38;26.47;;;11.50;;
16577;SDS011;8401;52.528;13.340;2023-02-23T03:46:30;22.37;;;11.23;;
16577;SDS011;8401;52.528;13.340;2023-02-23T03:49:17;22.13;;;12.13;;
16577;SDS011;8401;52.528;13.340;2023-02-23T03:52:08;24.63;;;11.37;;
16577;SDS011;8401;52.528;13.340;2023-02-23T03:55:06;22.50;;;12.40;;
16577;SDS011;8401;52.528;13.340;2023-02-23T03:58:05;27.87;;;12.33;;
16577;SDS011;8401;52.528;13.340;2023-02-23T04:00:56;20.63;;;11.67;;
16577;SDS011;8401;52.528;13.340;2023-02-23T04:03:44;22.33;;;11.17;;
16577;SDS011;8401;52.528;13.340;2023-02-23T04:06:32;21.93;;;12.17;;
16577;SDS011;8401;52.528;13.340;2023-02-23T04:09:22;21.07;;;12.43;;
16577;SDS011;8401;52.528;13.340;2023-02-23T04:17:51;24.57;;;12.33;;
16577;SDS011;8401;52.528;13.340;2023-02-23T04:20:18;26.30;;;12.60;;
16577;SDS011;8401;52.528;13.340;2023-02-23T04:22:43;32.07;;;14.03;;
16577;SDS011;8401;52.528;13.340;2023-02-23T04:25:09;24.33;;;11.73;;
16577;SDS011;8401;52.528;13.340;2023-02-23T04:27:37;28.90;;;13.10;;
16577;SDS011;8401;52.528;13.340;2023-02-23T04:30:03;26.30;;;12.67;;
16577;SDS011;8401;52.528;13.340;2023-02-23T04:32:29;26.67;;;12.70;;
16577;SDS011;8401;52.528;13.340;2023-02-23T04:34:55;25.57;;;12.70;;
16577;SDS011;8401;52.528;13.340;2023-02-23T04:37:20;21.23;;;12.67;;
16577;SDS011;8401;52.528;13.340;2023-02-23T04:39:46;24.00;;;13.17;;
16577;SDS011;8401;52.528;13.340;2023-02-23T04:42:15;26.83;;;12.67;;
16577;SDS011;8401;52.528;13.340;2023-02-23T04:44:41;23.83;;;12.03;;
16577;SDS011;8401;52.528;13.340;2023-02-23T04:47:07;26.07;;;13.50;;
16577;SDS011;8401;52.528;13.340;2023-02-23T04:49:33;24.70;;;12.67;;
16577;SDS011;8401;52.528;13.340;2023-02-23T04:51:58;19.93;;;11.90;;
16577;SDS011;8401;52.528;13.340;2023-02-23T04:54:24;25.70;;;12.13;;
16577;SDS011;8401;52.528;13.340;2023-02-23T04:56:50;23.63;;;12.27;;
16577;SDS011;8401;52.528;13.340;2023-02-23T04:59:16;26.00;;;12.10;;
16577;SDS011;8401;52.528;13.340;2023-02-23T05:01:42;26.73;;;13.87;;
16577;SDS011;8401;52.528;13.340;2023-02-23T05:04:08;27.43;;;13.80;;
16577;SDS011;8401;52.528;13.340;2023-02-23T05:06:34;27.33;;;13.13;;
16577;SDS011;8401;52.528;13.340;2023-02-23T05:09:00;26.47;;;12.70;;
16577;SDS011;8401;52.528;13.340;2023-02-23T05:11:27;25.40;;;12.87;;
16577;SDS011;8401;52.528;13.340;2023-02-23T05:13:54;28.23;;;12.57;;
16577;SDS011;8401;52.528;13.340;2023-02-23T05:16:20;29.57;;;14.00;;
16577;SDS011;8401;52.528;13.340;2023-02-23T05:18:45;29.53;;;13.83;;
16577;SDS011;8401;52.528;13.340;2023-02-23T05:21:11;25.03;;;12.30;;
16577;SDS011;8401;52.528;13.340;2023-02-23T05:23:37;26.37;;;13.57;;
16577;SDS011;8401;52.528;13.340;2023-02-23T05:26:04;25.93;;;13.00;;
16577;SDS011;8401;52.528;13.340;2023-02-23T05:28:32;22.93;;;11.87;;
16577;SDS011;8401;52.528;13.340;2023-02-23T05:30:59;28.00;;;13.23;;
16577;SDS011;8401;52.528;13.340;2023-02-23T05:33:25;25.30;;;13.27;;
16577;SDS011;8401;52.528;13.340;2023-02-23T05:35:51;24.27;;;11.60;;
16577;SDS011;8401;52.528;13.340;2023-02-23T05:38:16;24.10;;;12.53;;
16577;SDS011;8401;52.528;13.340;2023-02-23T05:40:42;20.87;;;12.70;;
16577;SDS011;8401;52.528;13.340;2023-02-23T05:43:08;24.37;;;12.23;;
16577;SDS011;8401;52.528;13.340;2023-02-23T05:45:33;26.03;;;13.40;;
16577;SDS011;8401;52.528;13.340;2023-02-23T05:48:03;24.83;;;12.33;;
16577;SDS011;8401;52.528;13.340;2023-02-23T05:50:29;23.70;;;12.33;;
16577;SDS011;8401;52.528;13.340;2023-02-23T05:52:55;25.80;;;13.27;;
16577;SDS011;8401;52.528;13.340;2023-02-23T05:55:20;22.27;;;11.47;;
16577;SDS011;8401;52.528;13.340;2023-02-23T05:57:46;26.10;;;11.73;;
16577;SDS011;8401;52.528;13.340;2023-02-23T06:00:11;24.70;;;12.77;;
16577;SDS011;8401;52.528;13.340;2023-02-23T06:02:37;29.80;;;13.23;;
16577;SDS011;8401;52.528;13.340;2023-02-23T06:05:04;26.50;;;12.60;;
16577;SDS011;8401;52.528;13.340;2023-02-23T06:07:30;28.83;;;12.67;;
16577;SDS011;8401;52.528;13.340;2023-02-23T06:09:55;24.60;;;12.73;;
16577;SDS011;8401;52.528;13.340;2023-02-23T06:12:21;27.77;;;13.23;;
16577;SDS011;8401;52.528;13.340;2023-02-23T06:14:47;27.67;;;13.37;;
16577;SDS011;8401;52.528;13.340;2023-02-23T06:17:15;27.60;;;13.37;;
16577;SDS011;8401;52.528;13.340;2023-02-23T06:19:41;25.43;;;12.13;;
16577;SDS011;8401;52.528;13.340;2023-02-23T06:22:07;28.77;;;13.47;;
16577;SDS011;8401;52.528;13.340;2023-02-23T06:24:33;28.23;;;13.43;;
16577;SDS011;8401;52.528;13.340;2023-02-23T06:26:59;27.80;;;13.27;;
16577;SDS011;8401;52.528;13.340;2023-02-23T06:29:25;24.33;;;11.90;;
16577;SDS011;8401;52.528;13.340;2023-02-23T06:31:50;27.10;;;12.80;;
16577;SDS011;8401;52.528;13.340;2023-02-23T06:34:16;26.80;;;13.13;;
16577;SDS011;8401;52.528;13.340;2023-02-23T06:36:42;25.53;;;12.97;;
16577;SDS011;8401;52.528;13.340;2023-02-23T06:39:09;25.97;;;12.97;;
16577;SDS011;8401;52.528;13.340;2023-02-23T06:41:36;28.20;;;14.70;;
16577;SDS011;8401;52.528;13.340;2023-02-23T06:44:02;26.90;;;12.30;;
16577;SDS011;8401;52.528;13.340;2023-02-23T06:46:28;27.03;;;13.87;;
16577;SDS011;8401;52.528;13.340;2023-02-23T06:48:54;28.00;;;13.43;;
16577;SDS011;8401;52.528;13.340;2023-02-23T06:51:20;27.13;;;14.37;;
16577;SDS011;8401;52.528;13.340;2023-02-23T06:53:46;30.10;;;14.47;;
16577;SDS011;8401;52.528;13.340;2023-02-23T06:56:12;29.50;;;13.33;;
16577;SDS011;8401;52.528;13.340;2023-02-23T06:58:38;20.87;;;11.83;;
16577;SDS011;8401;52.528;13.340;2023-02-23T07:01:04;23.97;;;12.20;;
16577;SDS011;8401;52.528;13.340;2023-02-23T07:03:30;25.80;;;13.13;;
16577;SDS011;8401;52.528;13.340;2023-02-23T07:05:56;23.17;;;12.40;;
16577;SDS011;8401;52.528;13.340;2023-02-23T07:08:22;22.20;;;10.70;;
16577;SDS011;8401;52.528;13.340;2023-02-23T07:10:47;25.17;;;12.50;;
16577;SDS011;8401;52.528;13.340;2023-02-23T07:13:13;25.77;;;12.50;;
16577;SDS011;8401;52.528;13.340;2023-02-23T07:15:39;27.37;;;12.77;;
16577;SDS011;8401;52.528;13.340;2023-02-23T07:18:05;26.90;;;12.43;;
16577;SDS011;8401;52.528;13.340;2023-02-23T07:20:31;24.23;;;12.47;;
16577;SDS011;8401;52.528;13.340;2023-02-23T07:22:58;26.87;;;13.30;;
16577;SDS011;8401;52.528;13.340;2023-02-23T07:25:28;30.20;;;12.43;;
16577;SDS011;8401;52.528;13.340;2023-02-23T07:27:54;28.17;;;13.20;;
16577;SDS011;8401;52.528;13.340;2023-02-23T07:30:20;25.40;;;12.40;;
16577;SDS011;8401;52.528;13.340;2023-02-23T07:32:48;26.57;;;13.63;;
16577;SDS011;8401;52.528;13.340;2023-02-23T07:35:15;15.93;;;10.70;;
16577;SDS011;8401;52.528;13.340;2023-02-23T07:37:41;26.53;;;12.90;;
16577;SDS011;8401;52.528;13.340;2023-02-23T07:40:07;32.80;;;14.40;;
16577;SDS011;8401;52.528;13.340;2023-02-23T07:42:33;26.60;;;13.20;;
16577;SDS011;8401;52.528;13.340;2023-02-23T07:44:59;27.50;;;14.07;;
16577;SDS011;8401;52.528;13.340;2023-02-23T07:47:24;23.77;;;12.80;;
16577;SDS011;8401;52.528;13.340;2023-02-23T07:49:55;31.43;;;14.70;;
16577;SDS011;8401;52.528;13.340;2023-02-23T07:52:22;24.40;;;12.93;;
16577;SDS011;8401;52.528;13.340;2023-02-23T07:54:48;24.97;;;13.63;;
16577;SDS011;8401;52.528;13.340;2023-02-23T07:57:13;29.60;;;13.37;;
16577;SDS011;8401;52.528;13.340;2023-02-23T07:59:39;23.87;;;13.20;;
16577;SDS011;8401;52.528;13.340;2023-02-23T08:02:05;31.47;;;13.57;;
16577;SDS011;8401;52.528;13.340;2023-02-23T08:04:31;26.60;;;13.33;;
16577;SDS011;8401;52.528;13.340;2023-02-23T08:06:57;21.33;;;12.33;;
16577;SDS011;8401;52.528;13.340;2023-02-23T08:09:22;26.87;;;13.43;;
16577;SDS011;8401;52.528;13.340;2023-02-23T08:11:48;26.70;;;13.80;;
16577;SDS011;8401;52.528;13.340;2023-02-23T08:14:13;23.83;;;13.20;;
16577;SDS011;8401;52.528;13.340;2023-02-23T08:16:39;27.47;;;13.83;;
16577;SDS011;8401;52.528;13.340;2023-02-23T08:19:05;26.53;;;13.63;;
16577;SDS011;8401;52.528;13.340;2023-02-23T08:21:30;24.60;;;14.40;;
16577;SDS011;8401;52.528;13.340;2023-02-23T08:23:56;27.30;;;14.13;;
16577;SDS011;8401;52.528;13.340;2023-02-23T08:26:22;27.20;;;14.33;;
16577;SDS011;8401;52.528;13.340;2023-02-23T08:28:49;23.10;;;12.87;;
16577;SDS011;8401;52.528;13.340;2023-02-23T08:31:15;25.27;;;13.10;;
16577;SDS011;8401;52.528;13.340;2023-02-23T08:33:44;27.00;;;12.93;;
16577;SDS011;8401;52.528;13.340;2023-02-23T08:36:10;26.63;;;13.47;;
16577;SDS011;8401;52.528;13.340;2023-02-23T08:38:36;26.23;;;13.63;;
16577;SDS011;8401;52.528;13.340;2023-02-23T08:41:02;23.30;;;13.17;;
16577;SDS011;8401;52.528;13.340;2023-02-23T08:43:28;26.63;;;14.40;;
16577;SDS011;8401;52.528;13.340;2023-02-23T08:45:54;26.67;;;13.27;;
16577;SDS011;8401;52.528;13.340;2023-02-23T08:48:20;32.33;;;14.47;;
16577;SDS011;8401;52.528;13.340;2023-02-23T08:50:49;30.13;;;13.10;;
16577;SDS011;8401;52.528;13.340;2023-02-23T08:53:15;25.90;;;14.13;;
16577;SDS011;8401;52.528;13.340;2023-02-23T08:55:41;26.67;;;13.60;;
16577;SDS011;8401;52.528;13.340;2023-02-23T08:58:07;24.40;;;13.80;;
16577;SDS011;8401;52.528;13.340;2023-02-23T09:00:35;27.03;;;14.33;;
16577;SDS011;8401;52.528;13.340;2023-02-23T09:03:01;28.33;;;14.23;;
16577;SDS011;8401;52.528;13.340;2023-02-23T09:05:29;29.60;;;14.47;;
16577;SDS011;8401;52.528;13.340;2023-02-23T09:07:55;28.53;;;13.63;;
16577;SDS011;8401;52.528;13.340;2023-02-23T09:10:21;24.23;;;13.60;;
16577;SDS011;8401;52.528;13.340;2023-02-23T09:12:49;23.47;;;13.20;;
16577;SDS011;8401;52.528;13.340;2023-02-23T09:15:15;28.37;;;14.43;;
16577;SDS011;8401;52.528;13.340;2023-02-23T09:17:41;31.07;;;13.57;;
16577;SDS011;8401;52.528;13.340;2023-02-23T09:20:09;27.33;;;13.90;;
16577;SDS011;8401;52.528;13.340;2023-02-23T09:22:37;24.73;;;13.83;;
16577;SDS011;8401;52.528;13.340;2023-02-23T09:25:04;31.63;;;15.50;;
16577;SDS011;8401;52.528;13.340;2023-02-23T09:27:30;30.37;;;13.93;;
16577;SDS011;8401;52.528;13.340;2023-02-23T09:29:56;27.33;;;14.50;;
16577;SDS011;8401;52.528;13.340;2023-02-23T09:32:22;22.17;;;13.47;;
16577;SDS011;8401;52.528;13.340;2023-02-23T09:34:47;25.57;;;13.70;;
16577;SDS011;8401;52.528;13.340;2023-02-23T09:37:13;23.17;;;13.50;;
16577;SDS011;8401;52.528;13.340;2023-02-23T09:39:39;24.27;;;14.53;;
16577;SDS011;8401;52.528;13.340;2023-02-23T09:47:28;26.73;;;14.77;;
16577;SDS011;8401;52.528;13.340;2023-02-23T09:50:09;25.97;;;13.63;;
16577;SDS011;8401;52.528;13.340;2023-02-23T09:52:50;29.53;;;13.80;;
16577;SDS011;8401;52.528;13.340;2023-02-23T09:55:20;30.33;;;15.07;;
16577;SDS011;8401;52.528;13.340;2023-02-23T09:57:46;28.97;;;15.37;;
16577;SDS011;8401;52.528;13.340;2023-02-23T10:05:44;27.33;;;14.43;;
16577;SDS011;8401;52.528;13.340;2023-02-23T10:08:18;23.63;;;13.93;;
16577;SDS011;8401;52.528;13.340;2023-02-23T10:13:55;21.97;;;13.37;;
16577;SDS011;8401;52.528;13.340;2023-02-23T10:17:38;23.70;;;14.20;;
16577;SDS011;8401;52.528;13.340;2023-02-23T10:22:52;24.53;;;14.10;;
16577;SDS011;8401;52.528;13.340;2023-02-23T10:25:24;23.10;;;13.30;;
16577;SDS011;8401;52.528;13.340;2023-02-23T10:27:54;28.50;;;15.07;;
16577;SDS011;8401;52.528;13.340;2023-02-23T10:35:46;21.53;;;13.53;;
16577;SDS011;8401;52.528;13.340;2023-02-23T10:38:15;25.70;;;15.03;;
16577;SDS011;8401;52.528;13.340;2023-02-23T10:40:43;25.03;;;15.50;;
16577;SDS011;8401;52.528;13.340;2023-02-23T10:43:12;22.73;;;14.23;;
16577;SDS011;8401;52.528;13.340;2023-02-23T10:45:42;22.83;;;14.23;;
16577;SDS011;8401;52.528;13.340;2023-02-23T10:48:33;20.03;;;14.17;;
16577;SDS011;8401;52.528;13.340;2023-02-23T10:51:00;21.23;;;14.03;;
16577;SDS011;8401;52.528;13.340;2023-02-23T10:53:31;23.43;;;14.00;;
16577;SDS011;8401;52.528;13.340;2023-02-23T10:58:45;24.10;;;14.23;;
16577;SDS011;8401;52.528;13.340;2023-02-23T11:01:39;24.67;;;15.97;;
16577;SDS011;8401;52.528;13.340;2023-02-23T11:06:42;20.97;;;15.13;;
16577;SDS011;8401;52.528;13.340;2023-02-23T11:09:27;21.43;;;14.60;;
16577;SDS011;8401;52.528;13.340;2023-02-23T11:11:55;23.50;;;14.70;;
16577;SDS011;8401;52.528;13.340;2023-02-23T11:14:24;24.17;;;15.00;;
16577;SDS011;8401;52.528;13.340;2023-02-23T11:16:56;23.87;;;16.00;;
16577;SDS011;8401;52.528;13.340;2023-02-23T11:19:33;21.37;;;14.97;;
16577;SDS011;8401;52.528;13.340;2023-02-23T11:22:03;20.00;;;15.23;;
16577;SDS011;8401;52.528;13.340;2023-02-23T11:24:34;22.57;;;15.13;;
16577;SDS011;8401;52.528;13.340;2023-02-23T11:27:15;24.13;;;15.40;;
16577;SDS011;8401;52.528;13.340;2023-02-23T11:29:45;25.57;;;15.57;;
16577;SDS011;8401;52.528;13.340;2023-02-23T11:32:15;25.57;;;15.80;;
16577;SDS011;8401;52.528;13.340;2023-02-23T11:34:44;23.03;;;15.93;;
16577;SDS011;8401;52.528;13.340;2023-02-23T11:42:25;23.53;;;15.23;;
16577;SDS011;8401;52.528;13.340;2023-02-23T11:47:47;22.67;;;14.70;;
16577;SDS011;8401;52.528;13.340;2023-02-23T11:50:21;24.03;;;15.90;;
16577;SDS011;8401;52.528;13.340;2023-02-23T11:56:07;22.30;;;14.87;;
16577;SDS011;8401;52.528;13.340;2023-02-23T11:58:42;24.50;;;15.10;;
16577;SDS011;8401;52.528;13.340;2023-02-23T12:01:13;23.70;;;18.15;;
16577;SDS011;8401;52.528;13.340;2023-02-23T12:03:48;21.83;;;16.47;;
16577;SDS011;8401;52.528;13.340;2023-02-23T12:06:35;21.77;;;15.47;;
16577;SDS011;8401;52.528;13.340;2023-02-23T12:09:05;22.60;;;15.60;;
16577;SDS011;8401;52.528;13.340;2023-02-23T12:11:43;24.13;;;14.93;;
16577;SDS011;8401;52.528;13.340;2023-02-23T12:17:07;23.10;;;15.47;;
16577;SDS011;8401;52.528;13.340;2023-02-23T12:19:47;21.57;;;15.00;;
16577;SDS011;8401;52.528;13.340;2023-02-23T12:22:21;21.93;;;14.80;;
16577;SDS011;8401;52.528;13.340;2023-02-23T12:33:02;24.27;;;15.67;;
16577;SDS011;8401;52.528;13.340;2023-02-23T12:38:04;26.90;;;16.73;;
16577;SDS011;8401;52.528;13.340;2023-02-23T12:40:36;22.27;;;15.53;;
16577;SDS011;8401;52.528;13.340;2023-02-23T12:43:10;25.53;;;16.17;;
16577;SDS011;8401;52.528;13.340;2023-02-23T12:45:41;23.77;;;16.30;;
16577;SDS011;8401;52.528;13.340;2023-02-23T12:50:44;25.30;;;16.50;;
16577;SDS011;8401;52.528;13.340;2023-02-23T12:56:05;24.43;;;15.87;;
16577;SDS011;8401;52.528;13.340;2023-02-23T12:58:48;24.13;;;17.23;;
16577;SDS011;8401;52.528;13.340;2023-02-23T13:10:01;25.30;;;17.20;;
16577;SDS011;8401;52.528;13.340;2023-02-23T13:12:53;23.97;;;17.40;;
16577;SDS011;8401;52.528;13.340;2023-02-23T13:15:42;25.47;;;16.33;;
16577;SDS011;8401;52.528;13.340;2023-02-23T13:23:57;26.63;;;16.73;;
16577;SDS011;8401;52.528;13.340;2023-02-23T13:32:03;29.50;;;18.10;;
16577;SDS011;8401;52.528;13.340;2023-02-23T13:34:34;27.27;;;16.57;;
16577;SDS011;8401;52.528;13.340;2023-02-23T13:37:05;23.90;;;16.70;;
16577;SDS011;8401;52.528;13.340;2023-02-23T13:39:37;28.67;;;18.37;;
16577;SDS011;8401;52.528;13.340;2023-02-23T13:42:45;24.17;;;15.83;;
16577;SDS011;8401;52.528;13.340;2023-02-23T13:48:19;27.77;;;18.97;;
16577;SDS011;8401;52.528;13.340;2023-02-23T13:53:45;27.57;;;18.17;;
16577;SDS011;8401;52.528;13.340;2023-02-23T13:56:27;31.97;;;19.63;;
16577;SDS011;8401;52.528;13.340;2023-02-23T13:59:05;27.47;;;18.27;;
16577;SDS011;8401;52.528;13.340;2023-02-23T14:01:37;32.20;;;20.80;;
16577;SDS011;8401;52.528;13.340;2023-02-23T14:04:34;28.50;;;19.47;;
16577;SDS011;8401;52.528;13.340;2023-02-23T14:09:29;34.07;;;19.37;;
16577;SDS011;8401;52.528;13.340;2023-02-23T14:12:16;33.90;;;20.17;;
16577;SDS011;8401;52.528;13.340;2023-02-23T14:14:57;28.83;;;19.53;;
16577;SDS011;8401;52.528;13.340;2023-02-23T14:18:02;29.00;;;19.50;;
16577;SDS011;8401;52.528;13.340;2023-02-23T14:26:36;30.20;;;20.37;;
16577;SDS011;8401;52.528;13.340;2023-02-23T14:31:56;34.23;;;21.43;;
16577;SDS011;8401;52.528;13.340;2023-02-23T14:34:25;31.33;;;20.57;;
16577;SDS011;8401;52.528;13.340;2023-02-23T14:37:23;31.77;;;20.97;;
16577;SDS011;8401;52.528;13.340;2023-02-23T14:39:49;37.77;;;22.73;;
16577;SDS011;8401;52.528;13.340;2023-02-23T14:42:19;32.80;;;21.13;;
16577;SDS011;8401;52.528;13.340;2023-02-23T14:44:47;33.10;;;22.13;;
16577;SDS011;8401;52.528;13.340;2023-02-23T14:47:40;34.03;;;22.50;;
16577;SDS011;8401;52.528;13.340;2023-02-23T14:50:10;32.33;;;20.80;;
16577;SDS011;8401;52.528;13.340;2023-02-23T14:52:49;30.93;;;20.50;;
16577;SDS011;8401;52.528;13.340;2023-02-23T14:55:21;31.67;;;21.10;;
16577;SDS011;8401;52.528;13.340;2023-02-23T14:57:47;35.77;;;23.13;;
16577;SDS011;8401;52.528;13.340;2023-02-23T15:02:39;37.07;;;23.43;;
16577;SDS011;8401;52.528;13.340;2023-02-23T15:05:17;38.63;;;23.93;;
16577;SDS011;8401;52.528;13.340;2023-02-23T15:07:46;40.03;;;24.33;;
16577;SDS011;8401;52.528;13.340;2023-02-23T15:10:19;40.30;;;24.77;;
16577;SDS011;8401;52.528;13.340;2023-02-23T15:12:50;34.47;;;22.60;;
16577;SDS011;8401;52.528;13.340;2023-02-23T15:15:18;33.10;;;21.87;;
16577;SDS011;8401;52.528;13.340;2023-02-23T15:17:48;36.00;;;22.77;;
16577;SDS011;8401;52.528;13.340;2023-02-23T15:20:17;33.07;;;21.33;;
16577;SDS011;8401;52.528;13.340;2023-02-23T15:22:50;36.17;;;23.53;;
16577;SDS011;8401;52.528;13.340;2023-02-23T15:27:46;38.87;;;24.43;;
16577;SDS011;8401;52.528;13.340;2023-02-23T15:30:22;37.83;;;24.93;;
16577;SDS011;8401;52.528;13.340;2023-02-23T15:33:13;39.83;;;23.93;;
16577;SDS011;8401;52.528;13.340;2023-02-23T15:35:52;37.00;;;23.80;;
16577;SDS011;8401;52.528;13.340;2023-02-23T15:38:25;39.57;;;24.93;;
16577;SDS011;8401;52.528;13.340;2023-02-23T15:40:56;40.17;;;25.10;;
16577;SDS011;8401;52.528;13.340;2023-02-23T15:43:25;42.57;;;24.80;;
16577;SDS011;8401;52.528;13.340;2023-02-23T15:45:54;42.73;;;25.90;;
16577;SDS011;8401;52.528;13.340;2023-02-23T15:48:24;44.83;;;25.53;;
16577;SDS011;8401;52.528;13.340;2023-02-23T15:50:53;43.07;;;25.37;;
16577;SDS011;8401;52.528;13.340;2023-02-23T15:53:35;43.03;;;24.70;;
16577;SDS011;8401;52.528;13.340;2023-02-23T15:56:11;44.43;;;25.70;;
16577;SDS011;8401;52.528;13.340;2023-02-23T15:58:41;40.43;;;25.87;;
16577;SDS011;8401;52.528;13.340;2023-02-23T16:01:31;48.43;;;26.57;;
16577;SDS011;8401;52.528;13.340;2023-02-23T16:04:01;43.83;;;25.47;;
16577;SDS011;8401;52.528;13.340;2023-02-23T16:06:36;44.53;;;26.77;;
16577;SDS011;8401;52.528;13.340;2023-02-23T16:14:24;47.10;;;28.03;;
16577;SDS011;8401;52.528;13.340;2023-02-23T16:16:56;47.87;;;28.73;;
16577;SDS011;8401;52.528;13.340;2023-02-23T16:19:22;47.27;;;28.47;;
16577;SDS011;8401;52.528;13.340;2023-02-23T16:21:50;47.87;;;28.63;;
16577;SDS011;8401;52.528;13.340;2023-02-23T16:24:21;50.93;;;29.30;;
16577;SDS011;8401;52.528;13.340;2023-02-23T16:26:56;49.33;;;29.23;;
16577;SDS011;8401;52.528;13.340;2023-02-23T16:29:26;51.87;;;30.17;;
16577;SDS011;8401;52.528;13.340;2023-02-23T16:32:00;52.10;;;29.47;;
16577;SDS011;8401;52.528;13.340;2023-02-23T16:34:31;52.70;;;29.40;;
16577;SDS011;8401;52.528;13.340;2023-02-23T16:37:03;51.33;;;31.67;;
16577;SDS011;8401;52.528;13.340;2023-02-23T16:39:47;53.03;;;32.83;;
16577;SDS011;8401;52.528;13.340;2023-02-23T16:44:42;60.47;;;34.17;;
16577;SDS011;8401;52.528;13.340;2023-02-23T16:47:30;62.40;;;35.47;;
16577;SDS011;8401;52.528;13.340;2023-02-23T16:50:08;61.40;;;34.73;;
16577;SDS011;8401;52.528;13.340;2023-02-23T16:52:49;62.97;;;35.23;;
16577;SDS011;8401;52.528;13.340;2023-02-23T16:55:17;61.53;;;35.37;;
16577;SDS011;8401;52.528;13.340;2023-02-23T16:57:47;60.23;;;34.83;;
16577;SDS011;8401;52.528;13.340;2023-02-23T17:00:19;62.47;;;35.87;;
16577;SDS011;8401;52.528;13.340;2023-02-23T17:02:48;62.83;;;37.03;;
16577;SDS011;8401;52.528;13.340;2023-02-23T17:05:15;70.37;;;35.90;;
16577;SDS011;8401;52.528;13.340;2023-02-23T17:07:43;65.53;;;37.23;;
16577;SDS011;8401;52.528;13.340;2023-02-23T17:10:20;66.60;;;37.13;;